Time;durP1;ratioP1;P1;durP2;ratioP2;P2;SDS_P1;SDS_P2;PMS_P1;PMS_P2;Temp;Humidity;BMP_temperature;BMP_pressure;BME280_temperature;BME280_humidity;BME280_pressure;Samples;Min_cycle;Max_cycle;Signal;HPM_P1;HPM_P2
2022/05/31 00:02:21;;;;;;;1.30;1.10;;;10.00;98.00;;;;;;5032980;28;20451;-66
2022/05/31 00:04:49;;;;;;;1.50;1.27;;;9.90;98.00;;;;;;5031590;28;20466;-66
2022/05/31 00:07:17;;;;;;;1.40;1.37;;;9.90;98.00;;;;;;5032590;28;20455;-66
2022/05/31 00:09:47;;;;;;;1.20;1.13;;;9.90;98.00;;;;;;5032395;28;20456;-66
2022/05/31 00:12:14;;;;;;;2.90;1.50;;;9.80;98.00;;;;;;5032288;28;20461;-66
2022/05/31 00:14:43;;;;;;;1.83;1.57;;;9.80;98.00;;;;;;5031960;28;20494;-66
2022/05/31 00:17:12;;;;;;;1.50;1.30;;;9.80;98.00;;;;;;5032143;28;20459;-66
2022/05/31 00:19:40;;;;;;;1.70;1.30;;;9.90;98.00;;;;;;5032209;28;20936;-66
2022/05/31 00:22:11;;;;;;;2.33;1.53;;;9.80;98.00;;;;;;5032073;28;20459;-66
2022/05/31 00:24:40;;;;;;;1.20;1.10;;;9.90;98.00;;;;;;5032173;28;20450;-66
2022/05/31 00:27:07;;;;;;;1.40;1.10;;;9.80;98.00;;;;;;5031943;28;20462;-67
2022/05/31 00:29:37;;;;;;;1.20;1.17;;;9.90;98.00;;;;;;5032185;28;20459;-66
2022/05/31 00:32:09;;;;;;;2.00;1.80;;;9.80;98.00;;;;;;5032385;28;20462;-66
2022/05/31 00:34:39;;;;;;;2.07;1.27;;;9.90;98.00;;;;;;5031884;28;20464;-66
2022/05/31 00:37:08;;;;;;;1.97;1.40;;;9.80;98.00;;;;;;5031253;28;20549;-66
2022/05/31 00:39:35;;;;;;;2.17;1.53;;;9.80;98.00;;;;;;5031876;28;20462;-66
2022/05/31 00:42:04;;;;;;;1.60;1.23;;;9.80;98.00;;;;;;5031905;28;20456;-66
2022/05/31 00:44:34;;;;;;;1.20;1.07;;;9.70;98.00;;;;;;5031894;28;20452;-66
2022/05/31 00:47:06;;;;;;;1.70;1.30;;;9.50;98.00;;;;;;5032016;28;20451;-66
2022/05/31 00:49:36;;;;;;;1.37;1.17;;;9.40;98.00;;;;;;5030627;28;20455;-66
2022/05/31 00:52:10;;;;;;;1.40;1.20;;;9.40;98.00;;;;;;5031983;28;20458;-66
2022/05/31 00:54:41;;;;;;;4.37;1.60;;;9.70;98.00;;;;;;5031875;28;20473;-66
2022/05/31 00:57:09;;;;;;;1.20;1.10;;;9.60;98.00;;;;;;5032033;28;20938;-65
2022/05/31 00:59:38;;;;;;;1.70;1.20;;;9.50;98.00;;;;;;5031747;28;20961;-66
2022/05/31 01:02:06;;;;;;;1.80;1.40;;;9.40;98.00;;;;;;5014787;28;20517;-66
2022/05/31 01:04:39;;;;;;;1.70;1.30;;;9.40;98.00;;;;;;5032004;28;20868;-66
2022/05/31 01:07:08;;;;;;;1.20;1.10;;;9.30;98.00;;;;;;5031673;28;20502;-66
2022/05/31 01:09:35;;;;;;;2.13;1.50;;;9.30;98.00;;;;;;5031769;28;20535;-66
2022/05/31 01:12:05;;;;;;;1.20;1.10;;;9.30;98.00;;;;;;5031726;28;20467;-66
2022/05/31 01:14:33;;;;;;;1.60;1.20;;;9.40;98.00;;;;;;5031673;28;20961;-66
2022/05/31 01:17:03;;;;;;;1.30;1.10;;;9.50;98.00;;;;;;5031521;28;20462;-65
2022/05/31 01:22:16;;;;;;;1.50;1.20;;;9.60;98.00;;;;;;5031662;28;20440;-66
2022/05/31 01:24:51;;;;;;;1.60;1.20;;;9.50;98.00;;;;;;5031498;28;20474;-65
2022/05/31 01:27:32;;;;;;;1.40;1.23;;;9.50;98.00;;;;;;5031492;28;20515;-66
2022/05/31 01:30:02;;;;;;;2.10;1.50;;;9.50;98.00;;;;;;5031431;28;21191;-66
2022/05/31 01:32:29;;;;;;;2.03;1.10;;;9.40;98.00;;;;;;5030384;28;20505;-66
2022/05/31 01:35:01;;;;;;;1.20;0.90;;;9.40;98.00;;;;;;5031093;28;20506;-66
2022/05/31 01:37:42;;;;;;;4.20;1.50;;;9.40;98.00;;;;;;5031500;28;20474;-66
2022/05/31 01:40:13;;;;;;;1.40;1.30;;;9.30;98.00;;;;;;5031533;28;20491;-67
2022/05/31 01:42:45;;;;;;;1.70;1.20;;;9.40;98.00;;;;;;5031529;28;20457;-66
2022/05/31 01:45:18;;;;;;;1.20;1.00;;;9.40;98.00;;;;;;5031241;28;20542;-66
2022/05/31 01:47:46;;;;;;;1.73;1.20;;;9.10;98.00;;;;;;5032548;28;20466;-66
2022/05/31 01:50:18;;;;;;;1.23;1.10;;;9.10;98.00;;;;;;5035022;28;20458;-66
2022/05/31 01:52:48;;;;;;;1.40;1.00;;;8.90;98.00;;;;;;5035161;28;20463;-66
2022/05/31 01:55:16;;;;;;;1.30;1.10;;;9.00;98.00;;;;;;5034871;28;21000;-66
2022/05/31 01:57:48;;;;;;;1.40;1.20;;;9.00;98.00;;;;;;5033789;28;20458;-65
2022/05/31 02:00:16;;;;;;;1.50;1.10;;;8.90;98.00;;;;;;5034922;28;20561;-66
2022/05/31 02:02:47;;;;;;;1.20;1.00;;;8.70;98.00;;;;;;5035142;28;20861;-66
2022/05/31 02:05:14;;;;;;;1.20;1.10;;;8.70;98.00;;;;;;5035222;28;20498;-66
2022/05/31 02:07:42;;;;;;;2.07;1.83;;;8.80;98.00;;;;;;5034748;28;20459;-66
2022/05/31 02:10:11;;;;;;;1.83;1.40;;;8.90;98.00;;;;;;5034582;28;20466;-66
2022/05/31 02:12:38;;;;;;;1.30;1.10;;;8.70;98.00;;;;;;5034036;28;20529;-66
2022/05/31 02:15:06;;;;;;;1.37;1.20;;;8.80;98.00;;;;;;5033608;28;20465;-66
2022/05/31 02:17:33;;;;;;;1.20;1.00;;;8.80;98.00;;;;;;5033682;28;20838;-66
2022/05/31 02:20:00;;;;;;;1.80;1.13;;;8.70;98.00;;;;;;5032820;28;20463;-66
2022/05/31 02:22:30;;;;;;;1.40;1.40;;;8.80;98.00;;;;;;5033229;28;20456;-66
2022/05/31 02:24:57;;;;;;;2.47;1.53;;;8.80;98.00;;;;;;5032988;28;20447;-66
2022/05/31 02:27:29;;;;;;;2.90;1.27;;;8.70;98.00;;;;;;5034264;28;20466;-66
2022/05/31 02:29:57;;;;;;;1.20;1.00;;;8.80;98.00;;;;;;5033111;28;20516;-66
2022/05/31 02:32:24;;;;;;;1.33;1.20;;;8.70;98.00;;;;;;5033140;28;20792;-66
2022/05/31 02:34:53;;;;;;;3.23;1.70;;;8.70;98.00;;;;;;5034134;28;20462;-66
2022/05/31 02:37:21;;;;;;;1.20;1.00;;;8.70;98.00;;;;;;5034008;28;20520;-66
2022/05/31 02:39:49;;;;;;;1.20;1.00;;;8.70;98.00;;;;;;5034008;28;20454;-66
2022/05/31 02:42:16;;;;;;;6.03;1.73;;;8.80;98.00;;;;;;5034099;28;20469;-66
2022/05/31 02:44:46;;;;;;;4.37;1.60;;;8.70;98.00;;;;;;5033963;28;20818;-66
2022/05/31 02:47:14;;;;;;;1.23;1.10;;;8.70;98.00;;;;;;5034018;28;20453;-66
2022/05/31 02:49:44;;;;;;;2.33;1.40;;;8.60;98.00;;;;;;5033931;28;20455;-66
2022/05/31 02:52:11;;;;;;;1.90;1.60;;;8.40;98.00;;;;;;5034229;28;20465;-66
2022/05/31 02:54:38;;;;;;;1.20;1.10;;;8.40;98.00;;;;;;5033815;28;20908;-66
2022/05/31 02:57:06;;;;;;;1.70;1.60;;;8.50;98.00;;;;;;5033744;28;21028;-66
2022/05/31 02:59:33;;;;;;;1.57;1.47;;;8.70;98.00;;;;;;5032815;28;20891;-66
2022/05/31 03:02:02;;;;;;;1.20;0.97;;;8.60;98.00;;;;;;5033939;28;20462;-66
2022/05/31 03:04:29;;;;;;;1.40;1.10;;;8.70;98.00;;;;;;5032702;28;20811;-66
2022/05/31 03:07:01;;;;;;;1.50;1.30;;;8.70;98.00;;;;;;5033905;28;20458;-66
2022/05/31 03:09:31;;;;;;;1.70;1.10;;;8.50;98.00;;;;;;5033837;28;20486;-66
2022/05/31 03:12:04;;;;;;;1.20;1.10;;;8.40;98.00;;;;;;5033441;28;20516;-65
2022/05/31 03:14:36;;;;;;;3.40;1.30;;;8.60;98.00;;;;;;5032332;28;20462;-66
2022/05/31 03:17:11;;;;;;;1.50;1.20;;;8.60;98.00;;;;;;5033232;28;20486;-66
2022/05/31 03:19:43;;;;;;;1.83;1.13;;;8.50;98.00;;;;;;5033159;28;20462;-66
2022/05/31 03:22:18;;;;;;;1.30;1.20;;;8.30;98.00;;;;;;5033325;28;20463;-66
2022/05/31 03:24:50;;;;;;;1.37;1.10;;;8.20;98.00;;;;;;5033145;28;20461;-66
2022/05/31 03:27:17;;;;;;;2.60;1.67;;;8.10;98.00;;;;;;5033313;28;20462;-66
2022/05/31 03:29:47;;;;;;;1.20;1.13;;;8.10;98.00;;;;;;5032981;28;20462;-66
2022/05/31 03:32:17;;;;;;;1.20;1.00;;;8.30;98.00;;;;;;5033427;28;20457;-65
2022/05/31 03:34:45;;;;;;;2.17;1.30;;;8.20;98.00;;;;;;5033085;28;20460;-66
2022/05/31 03:37:12;;;;;;;2.23;1.50;;;8.10;98.00;;;;;;5033050;28;20510;-66
2022/05/31 03:39:39;;;;;;;1.27;1.10;;;8.00;98.00;;;;;;5032745;28;21036;-65
2022/05/31 03:42:07;;;;;;;1.20;1.07;;;7.90;98.00;;;;;;5032917;28;20458;-66
2022/05/31 03:44:34;;;;;;;1.20;1.00;;;7.90;98.00;;;;;;5032904;28;20462;-65
2022/05/31 03:47:03;;;;;;;1.60;1.10;;;8.00;98.00;;;;;;5031587;28;20460;-66
2022/05/31 03:49:31;;;;;;;1.60;1.43;;;8.10;98.00;;;;;;5032692;28;20464;-66
2022/05/31 03:51:59;;;;;;;1.40;1.10;;;8.20;98.00;;;;;;5032798;28;20461;-66
2022/05/31 03:54:27;;;;;;;1.50;1.40;;;8.20;98.00;;;;;;5032736;28;20463;-65
2022/05/31 03:56:54;;;;;;;1.30;1.10;;;8.30;98.00;;;;;;5032639;28;20512;-66
2022/05/31 03:59:22;;;;;;;1.73;1.30;;;8.50;98.00;;;;;;5031636;28;20500;-66
2022/05/31 04:01:49;;;;;;;1.30;1.10;;;8.40;98.00;;;;;;5032469;28;20461;-65
2022/05/31 04:04:16;;;;;;;1.83;1.10;;;8.30;98.00;;;;;;5033008;28;20468;-66
2022/05/31 04:06:46;;;;;;;1.33;1.30;;;8.20;98.00;;;;;;5032780;28;20483;-66
2022/05/31 04:09:13;;;;;;;1.20;1.00;;;8.20;98.00;;;;;;5031486;28;20545;-66
2022/05/31 04:11:40;;;;;;;1.20;1.00;;;8.30;98.00;;;;;;5032135;28;20462;-66
2022/05/31 04:14:08;;;;;;;1.50;1.23;;;8.30;98.00;;;;;;5032213;28;20457;-66
2022/05/31 04:16:35;;;;;;;2.23;1.40;;;8.30;98.00;;;;;;5032060;28;20486;-66
2022/05/31 04:19:04;;;;;;;2.07;1.33;;;8.70;98.00;;;;;;5032181;28;20466;-66
2022/05/31 04:21:31;;;;;;;1.20;1.03;;;8.80;98.00;;;;;;5032268;28;20539;-66
2022/05/31 04:23:59;;;;;;;1.50;1.20;;;9.00;98.00;;;;;;5032234;28;20469;-66
2022/05/31 04:26:27;;;;;;;1.73;1.53;;;9.20;98.00;;;;;;5030771;28;20525;-66
2022/05/31 04:28:54;;;;;;;1.37;1.10;;;9.20;98.00;;;;;;5032287;28;20459;-66
2022/05/31 04:31:21;;;;;;;1.27;1.10;;;9.30;98.00;;;;;;5032008;28;20458;-65
2022/05/31 04:33:49;;;;;;;1.30;1.13;;;9.40;98.00;;;;;;5032088;28;20971;-65
2022/05/31 04:36:19;;;;;;;1.40;1.30;;;9.50;98.00;;;;;;5030780;28;20486;-66
2022/05/31 04:38:47;;;;;;;1.40;1.23;;;9.40;98.00;;;;;;5032043;28;20475;-66
2022/05/31 04:41:21;;;;;;;1.20;0.90;;;9.40;98.00;;;;;;5032181;28;20940;-66
2022/05/31 04:43:49;;;;;;;2.50;1.23;;;9.40;98.00;;;;;;5031956;28;20456;-66
2022/05/31 04:46:18;;;;;;;1.80;1.40;;;9.50;98.00;;;;;;5032108;28;20447;-66
2022/05/31 04:48:45;;;;;;;1.40;1.10;;;9.60;98.00;;;;;;5031867;28;20452;-66
2022/05/31 04:51:13;;;;;;;1.30;1.17;;;9.40;98.00;;;;;;5031878;28;20936;-66
2022/05/31 04:53:41;;;;;;;1.20;1.10;;;9.20;98.00;;;;;;5031909;28;20541;-66
2022/05/31 04:56:10;;;;;;;1.40;1.33;;;9.20;98.00;;;;;;5031790;28;20481;-66
2022/05/31 04:58:39;;;;;;;1.20;1.10;;;9.20;98.00;;;;;;5031806;28;20525;-66
2022/05/31 05:01:07;;;;;;;2.03;1.20;;;9.20;98.00;;;;;;5032032;28;20479;-66
2022/05/31 05:03:37;;;;;;;1.20;0.97;;;9.20;98.00;;;;;;5031926;28;20940;-66
2022/05/31 05:06:06;;;;;;;2.03;1.10;;;9.10;98.00;;;;;;5031997;28;20458;-66
2022/05/31 05:08:37;;;;;;;1.20;1.00;;;9.20;98.00;;;;;;5031772;28;20525;-66
2022/05/31 05:11:07;;;;;;;1.20;1.07;;;9.30;98.00;;;;;;5032046;28;20460;-66
2022/05/31 05:13:34;;;;;;;3.63;1.40;;;9.40;98.00;;;;;;5031545;28;20504;-66
2022/05/31 05:16:03;;;;;;;1.30;1.30;;;9.50;98.00;;;;;;5031700;28;20459;-66
2022/05/31 05:18:30;;;;;;;1.33;1.20;;;9.70;98.00;;;;;;5031493;28;20980;-67
2022/05/31 05:21:00;;;;;;;1.20;1.10;;;9.80;98.00;;;;;;5031540;28;20491;-66
2022/05/31 05:23:28;;;;;;;2.23;1.30;;;9.80;98.00;;;;;;5034141;28;20467;-66
2022/05/31 05:25:57;;;;;;;2.20;1.63;;;9.90;98.00;;;;;;5035302;28;20933;-66
2022/05/31 05:31:20;;;;;;;2.50;1.83;;;10.40;98.00;;;;;;5035514;28;20446;-66
2022/05/31 05:33:47;;;;;;;1.87;1.33;;;10.60;98.00;;;;;;5035351;28;20513;-66
2022/05/31 05:36:14;;;;;;;1.57;1.30;;;10.70;98.00;;;;;;5035331;28;20482;-65
2022/05/31 05:38:42;;;;;;;2.03;1.53;;;10.70;98.00;;;;;;5035027;28;20447;-66
2022/05/31 05:41:09;;;;;;;1.20;1.00;;;10.90;98.00;;;;;;5035268;28;20462;-66
2022/05/31 05:43:36;;;;;;;1.70;1.17;;;11.00;98.00;;;;;;5035202;28;20528;-66
2022/05/31 05:46:11;;;;;;;2.17;1.57;;;11.10;98.00;;;;;;5034952;28;20448;-66
2022/05/31 05:48:41;;;;;;;1.40;1.20;;;11.00;98.00;;;;;;5035261;28;20458;-66
2022/05/31 05:51:13;;;;;;;1.87;1.67;;;11.10;98.00;;;;;;5033807;28;20943;-66
2022/05/31 05:53:43;;;;;;;2.03;1.50;;;11.20;98.00;;;;;;5035060;28;20461;-66
2022/05/31 05:56:10;;;;;;;1.20;1.10;;;11.40;98.00;;;;;;5034824;28;21090;-66
2022/05/31 05:58:37;;;;;;;2.33;1.40;;;11.60;98.00;;;;;;5034797;28;20470;-66
2022/05/31 06:01:07;;;;;;;1.70;1.23;;;11.80;98.00;;;;;;5035054;28;20463;-66
2022/05/31 06:03:38;;;;;;;2.33;1.67;;;11.90;98.00;;;;;;5034824;28;20466;-66
2022/05/31 06:06:08;;;;;;;1.20;1.10;;;12.00;98.00;;;;;;5035183;28;20462;-66
2022/05/31 06:08:41;;;;;;;1.27;1.10;;;12.10;98.00;;;;;;5034687;28;20461;-66
2022/05/31 06:11:15;;;;;;;2.13;1.53;;;12.20;98.00;;;;;;5033670;28;21010;-65
2022/05/31 06:13:48;;;;;;;1.60;1.30;;;12.20;98.00;;;;;;5034556;28;20458;-66
2022/05/31 06:16:16;;;;;;;1.90;1.70;;;12.20;98.00;;;;;;5034558;28;20472;-66
2022/05/31 06:18:48;;;;;;;1.60;1.50;;;12.10;98.00;;;;;;5034353;28;20464;-66
2022/05/31 06:21:21;;;;;;;2.63;1.73;;;12.10;98.00;;;;;;5034421;28;20459;-66
2022/05/31 06:23:50;;;;;;;1.90;1.70;;;12.30;98.00;;;;;;5034400;28;20849;-65
2022/05/31 06:26:19;;;;;;;2.00;1.33;;;12.60;98.00;;;;;;5034267;28;20509;-65
2022/05/31 06:28:46;;;;;;;1.70;1.40;;;12.80;98.00;;;;;;5034378;28;20455;-63
2022/05/31 06:31:13;;;;;;;1.73;1.40;;;12.80;98.00;;;;;;5034069;28;20878;-61
2022/05/31 06:33:41;;;;;;;2.93;1.60;;;12.90;98.00;;;;;;5032985;28;20513;-61
2022/05/31 06:36:08;;;;;;;2.30;1.30;;;13.00;98.00;;;;;;5034351;28;20469;-61
2022/05/31 06:38:36;;;;;;;2.63;1.57;;;13.20;98.00;;;;;;5033942;28;21118;-61
2022/05/31 06:41:04;;;;;;;1.70;1.70;;;13.30;98.00;;;;;;5033950;28;20962;-61
2022/05/31 06:43:31;;;;;;;2.40;1.70;;;13.40;98.00;;;;;;5034040;28;20459;-61
2022/05/31 06:45:59;;;;;;;1.93;1.23;;;13.50;98.00;;;;;;5034024;28;21037;-61
2022/05/31 06:48:26;;;;;;;2.13;1.50;;;13.60;98.00;;;;;;5033949;28;20462;-62
2022/05/31 06:50:53;;;;;;;1.63;1.53;;;13.60;98.00;;;;;;5033858;28;20472;-62
2022/05/31 06:58:50;;;;;;;1.50;1.40;;;14.00;98.00;;;;;;5032020;28;20998;-61
2022/05/31 07:01:30;;;;;;;2.33;1.70;;;14.10;98.00;;;;;;5033945;28;20460;-61
2022/05/31 07:03:57;;;;;;;1.77;1.33;;;14.20;98.00;;;;;;5032748;28;20452;-61
2022/05/31 07:06:24;;;;;;;1.60;1.47;;;14.30;98.00;;;;;;5034098;28;20817;-61
2022/05/31 07:08:51;;;;;;;2.00;1.50;;;14.40;98.00;;;;;;5033717;28;20461;-61
2022/05/31 07:11:19;;;;;;;3.10;1.50;;;14.40;98.00;;;;;;5033686;28;20480;-61
2022/05/31 07:13:46;;;;;;;2.10;1.30;;;14.50;98.00;;;;;;5033342;28;20449;-61
2022/05/31 07:16:13;;;;;;;1.93;1.33;;;14.70;98.00;;;;;;5033567;28;20458;-61
2022/05/31 07:18:41;;;;;;;2.67;1.60;;;14.70;98.00;;;;;;5033172;28;20506;-61
2022/05/31 07:21:08;;;;;;;1.70;1.57;;;14.80;98.00;;;;;;5033484;28;20461;-61
2022/05/31 07:23:36;;;;;;;1.70;1.60;;;14.80;98.00;;;;;;5033336;28;20987;-61
2022/05/31 07:26:04;;;;;;;1.77;1.40;;;14.90;98.00;;;;;;5033194;28;20464;-61
2022/05/31 07:28:32;;;;;;;3.00;1.70;;;14.90;98.00;;;;;;5033204;28;20456;-61
2022/05/31 07:31:05;;;;;;;2.10;1.90;;;15.10;98.00;;;;;;5033109;28;20461;-61
2022/05/31 07:33:32;;;;;;;1.80;1.53;;;15.20;98.00;;;;;;5033279;28;20462;-61
2022/05/31 07:36:03;;;;;;;3.23;1.60;;;15.40;98.00;;;;;;5029506;28;20478;-61
2022/05/31 07:38:31;;;;;;;2.27;1.60;;;15.70;98.00;;;;;;5030289;28;21046;-61
2022/05/31 07:41:00;;;;;;;2.53;1.87;;;15.80;98.00;;;;;;5030446;28;20545;-61
2022/05/31 07:43:27;;;;;;;2.07;1.40;;;16.00;98.00;;;;;;5029065;28;20986;-61
2022/05/31 07:46:05;;;;;;;1.90;1.67;;;16.10;98.00;;;;;;5029339;28;20470;-61
2022/05/31 07:48:33;;;;;;;2.43;1.67;;;16.30;98.00;;;;;;5029827;28;20454;-61
2022/05/31 07:51:00;;;;;;;1.90;1.37;;;16.40;98.00;;;;;;5027760;28;20875;-61
2022/05/31 07:53:28;;;;;;;1.40;1.30;;;16.40;98.00;;;;;;5030383;28;20462;-61
2022/05/31 07:55:56;;;;;;;1.50;1.40;;;16.60;98.00;;;;;;5030003;28;20457;-61
2022/05/31 07:58:32;;;;;;;1.77;1.40;;;16.80;98.00;;;;;;5029707;28;20499;-62
2022/05/31 08:01:01;;;;;;;1.50;1.50;;;17.00;98.00;;;;;;5030219;28;20473;-63
2022/05/31 08:03:29;;;;;;;1.73;1.30;;;17.10;98.00;;;;;;5029921;28;20458;-65
2022/05/31 08:05:56;;;;;;;1.70;1.50;;;17.30;98.00;;;;;;5029978;28;20545;-63
2022/05/31 08:08:24;;;;;;;1.70;1.50;;;17.40;98.00;;;;;;5030186;28;20944;-62
2022/05/31 08:10:51;;;;;;;2.23;1.50;;;17.50;98.00;;;;;;5030235;28;20485;-62
2022/05/31 08:13:18;;;;;;;2.77;1.70;;;17.70;98.00;;;;;;5029871;28;20470;-61
2022/05/31 08:15:45;;;;;;;1.43;1.30;;;17.90;98.00;;;;;;5029670;28;20476;-62
2022/05/31 08:18:14;;;;;;;1.87;1.30;;;18.10;98.00;;;;;;5029358;28;20517;-62
2022/05/31 08:20:42;;;;;;;3.03;1.80;;;18.20;98.00;;;;;;5029519;28;20933;-61
2022/05/31 08:23:13;;;;;;;1.50;1.40;;;18.40;97.80;;;;;;5029630;28;20505;-61
2022/05/31 08:25:40;;;;;;;1.80;1.50;;;18.60;97.60;;;;;;5029521;28;20459;-61
2022/05/31 08:28:08;;;;;;;1.90;1.70;;;18.80;98.00;;;;;;5029580;28;20454;-61
2022/05/31 08:30:35;;;;;;;2.13;1.70;;;19.00;94.80;;;;;;5028714;28;20454;-61
2022/05/31 08:33:02;;;;;;;2.00;1.70;;;19.20;94.20;;;;;;5029228;28;20462;-61
2022/05/31 08:35:31;;;;;;;1.60;1.40;;;19.20;93.40;;;;;;5029266;28;20486;-61
2022/05/31 08:37:58;;;;;;;1.67;1.60;;;19.30;93.30;;;;;;5029125;28;20482;-62
2022/05/31 08:40:26;;;;;;;2.23;1.40;;;19.50;93.90;;;;;;5029661;28;20467;-62
2022/05/31 08:42:59;;;;;;;1.50;1.40;;;19.60;93.10;;;;;;5027991;28;20455;-62
2022/05/31 08:45:43;;;;;;;1.63;1.50;;;19.80;92.00;;;;;;5029013;28;20481;-61
2022/05/31 08:48:20;;;;;;;2.10;1.50;;;20.00;90.80;;;;;;5029359;28;20805;-62
2022/05/31 08:53:44;;;;;;;2.07;1.50;;;20.20;87.90;;;;;;5029269;28;20513;-62
2022/05/31 08:59:05;;;;;;;1.93;1.40;;;20.40;87.00;;;;;;5032658;28;20502;-62
2022/05/31 09:01:38;;;;;;;2.40;1.70;;;20.60;88.10;;;;;;5033516;28;20466;-62
2022/05/31 09:04:15;;;;;;;2.03;1.70;;;20.80;89.30;;;;;;5033054;28;20786;-63
2022/05/31 09:06:50;;;;;;;2.10;1.60;;;21.00;86.20;;;;;;5025505;28;20458;-62
2022/05/31 09:09:24;;;;;;;1.67;1.60;;;21.10;85.80;;;;;;5032868;28;20524;-62
2022/05/31 09:12:03;;;;;;;1.50;1.50;;;21.30;88.30;;;;;;5033129;28;20470;-61
2022/05/31 09:14:45;;;;;;;1.90;1.73;;;21.50;89.00;;;;;;5032947;28;20544;-61
2022/05/31 09:17:22;;;;;;;3.00;1.60;;;21.70;87.30;;;;;;5032610;28;20469;-61
2022/05/31 09:19:57;;;;;;;2.10;1.60;;;22.00;85.10;;;;;;5032990;28;20469;-62
2022/05/31 09:22:26;;;;;;;2.63;1.70;;;22.20;86.10;;;;;;5032841;28;20617;-61
2022/05/31 09:24:53;;;;;;;2.17;1.67;;;22.20;85.60;;;;;;5032746;28;20450;-62
2022/05/31 09:27:26;;;;;;;2.00;1.70;;;22.30;82.30;;;;;;5032867;28;20494;-62
2022/05/31 09:30:04;;;;;;;1.77;1.50;;;22.40;81.50;;;;;;5032922;28;20462;-62
2022/05/31 09:33:04;;;;;;;1.83;1.73;;;22.50;80.10;;;;;;5028020;28;20470;-63
2022/05/31 09:35:51;;;;;;;2.13;1.73;;;22.70;82.90;;;;;;5001831;28;20812;-62
2022/05/31 09:38:46;;;;;;;1.90;1.70;;;22.60;79.50;;;;;;5033023;28;20494;-61
2022/05/31 09:41:22;;;;;;;2.83;1.93;;;22.40;78.90;;;;;;5024283;28;20649;-63
2022/05/31 09:44:01;;;;;;;3.03;1.90;;;22.10;79.70;;;;;;5032747;28;20454;-61
2022/05/31 09:46:36;;;;;;;2.97;1.77;;;22.10;81.30;;;;;;5032416;28;20470;-62
2022/05/31 09:49:18;;;;;;;1.67;1.63;;;22.10;80.20;;;;;;5032979;28;20903;-62
2022/05/31 09:51:45;;;;;;;2.03;1.70;;;22.20;83.00;;;;;;5029740;28;20462;-61
2022/05/31 09:57:11;;;;;;;2.27;1.70;;;22.40;79.50;;;;;;5032532;28;21136;-62
2022/05/31 09:59:46;;;;;;;2.73;1.73;;;22.60;77.60;;;;;;5031276;28;20478;-63
2022/05/31 10:02:25;;;;;;;2.10;1.73;;;22.70;80.90;;;;;;5025179;28;20463;-62
2022/05/31 10:05:14;;;;;;;2.27;1.60;;;22.80;81.60;;;;;;5024422;28;20466;-62
2022/05/31 10:07:42;;;;;;;2.03;1.70;;;22.80;77.30;;;;;;5032280;28;20478;-62
2022/05/31 10:10:15;;;;;;;2.80;1.63;;;22.80;77.60;;;;;;5031651;28;20458;-62
2022/05/31 10:12:50;;;;;;;2.70;1.67;;;23.00;79.10;;;;;;5031883;28;20945;-61
2022/05/31 10:15:42;;;;;;;2.60;2.00;;;23.20;79.30;;;;;;5031803;28;20461;-62
2022/05/31 10:18:12;;;;;;;1.90;1.60;;;23.40;77.90;;;;;;5031623;28;20491;-62
2022/05/31 10:20:53;;;;;;;2.90;2.00;;;23.40;78.30;;;;;;5031813;28;20468;-63
2022/05/31 10:23:23;;;;;;;1.77;1.70;;;23.40;79.10;;;;;;5024539;28;20485;-62
2022/05/31 10:25:54;;;;;;;2.23;1.80;;;23.70;81.00;;;;;;5031519;28;20466;-61
2022/05/31 10:28:27;;;;;;;3.70;1.90;;;23.90;77.80;;;;;;5031727;28;20467;-62
2022/05/31 10:31:03;;;;;;;2.20;1.70;;;23.90;75.70;;;;;;5031080;28;20455;-62
2022/05/31 10:33:32;;;;;;;2.57;1.90;;;24.00;78.30;;;;;;5031751;28;20531;-61
2022/05/31 10:36:10;;;;;;;2.50;1.63;;;23.90;78.50;;;;;;5030156;28;20459;-62
2022/05/31 10:38:42;;;;;;;2.57;1.80;;;23.90;78.30;;;;;;5030064;28;20568;-61
2022/05/31 10:41:19;;;;;;;2.20;1.90;;;23.70;77.70;;;;;;5010088;28;20477;-61
2022/05/31 10:43:49;;;;;;;2.30;1.70;;;23.60;79.60;;;;;;5031275;28;20466;-62
2022/05/31 10:46:23;;;;;;;2.60;2.00;;;23.40;79.00;;;;;;5031182;28;20542;-61
2022/05/31 10:48:53;;;;;;;2.47;1.93;;;22.90;79.30;;;;;;5030964;28;20454;-62
2022/05/31 10:51:32;;;;;;;1.80;1.70;;;22.80;80.20;;;;;;5029186;28;20462;-62
2022/05/31 10:54:20;;;;;;;2.83;1.70;;;22.90;82.50;;;;;;5031523;28;20462;-62
2022/05/31 10:57:01;;;;;;;2.83;2.10;;;23.30;82.70;;;;;;5030253;28;21108;-62
2022/05/31 10:59:35;;;;;;;3.30;1.97;;;23.70;80.70;;;;;;5030935;28;20494;-62
2022/05/31 11:02:26;;;;;;;4.03;2.20;;;24.10;81.50;;;;;;5030928;28;20469;-62
2022/05/31 11:04:58;;;;;;;2.10;1.87;;;24.60;78.90;;;;;;5030249;28;20463;-61
2022/05/31 11:07:39;;;;;;;1.80;1.70;;;24.90;78.80;;;;;;5031083;28;20563;-61
2022/05/31 11:13:25;;;;;;;3.00;1.93;;;25.30;76.20;;;;;;5018077;28;21034;-62
2022/05/31 11:15:59;;;;;;;3.93;1.97;;;25.40;74.50;;;;;;5030705;28;20466;-62
2022/05/31 11:18:53;;;;;;;2.40;1.90;;;25.50;73.50;;;;;;5030708;28;20490;-61
2022/05/31 11:21:34;;;;;;;3.53;2.20;;;25.50;71.70;;;;;;5029705;28;20463;-61
2022/05/31 11:24:14;;;;;;;2.00;1.90;;;25.60;73.90;;;;;;5030815;28;20830;-62
2022/05/31 11:27:00;;;;;;;3.63;2.30;;;25.90;72.30;;;;;;5030440;28;20462;-61
2022/05/31 11:29:49;;;;;;;2.47;2.00;;;26.10;73.70;;;;;;5029262;28;20470;-62
2022/05/31 11:32:27;;;;;;;1.80;1.70;;;26.40;72.90;;;;;;5030884;28;20463;-65
2022/05/31 11:35:17;;;;;;;2.17;2.00;;;26.70;72.20;;;;;;5029678;28;20458;-64
2022/05/31 11:38:03;;;;;;;2.53;2.10;;;26.80;74.30;;;;;;5030261;28;20467;-64
2022/05/31 11:40:49;;;;;;;3.30;2.10;;;26.40;72.40;;;;;;5030224;28;20493;-64
2022/05/31 11:43:41;;;;;;;2.37;1.80;;;26.10;76.20;;;;;;5030123;28;20454;-63
2022/05/31 11:46:16;;;;;;;2.77;2.00;;;26.30;74.60;;;;;;5021749;28;20508;-63
2022/05/31 11:49:02;;;;;;;2.23;1.70;;;25.90;74.10;;;;;;5030090;28;20489;-63
2022/05/31 11:51:44;;;;;;;3.23;2.20;;;25.30;74.00;;;;;;5027946;28;20454;-62
2022/05/31 11:54:42;;;;;;;2.10;2.00;;;25.00;76.40;;;;;;5030223;28;20462;-61
2022/05/31 11:57:24;;;;;;;3.10;2.30;;;25.20;76.80;;;;;;5022193;28;20455;-62
2022/05/31 11:59:57;;;;;;;2.40;2.13;;;25.80;77.90;;;;;;5029921;28;20506;-62
2022/05/31 12:02:34;;;;;;;3.00;2.10;;;26.20;72.20;;;;;;5028928;28;20813;-61
2022/05/31 12:05:10;;;;;;;2.13;1.80;;;26.10;71.90;;;;;;5029924;28;20458;-62
2022/05/31 12:07:43;;;;;;;3.67;2.30;;;26.40;73.50;;;;;;5030159;28;20446;-62
2022/05/31 12:10:21;;;;;;;2.77;1.93;;;26.30;72.60;;;;;;5029107;28;20454;-62
2022/05/31 12:12:50;;;;;;;4.50;2.63;;;26.40;73.60;;;;;;5029965;28;20454;-62
2022/05/31 12:15:21;;;;;;;3.90;2.30;;;26.70;71.30;;;;;;5029808;28;20459;-61
2022/05/31 12:17:55;;;;;;;3.70;2.40;;;26.80;73.90;;;;;;5031026;28;20458;-61
2022/05/31 12:20:27;;;;;;;4.03;2.33;;;27.00;69.80;;;;;;5031959;28;20458;-61
2022/05/31 12:23:02;;;;;;;2.27;2.07;;;27.20;71.70;;;;;;5032166;28;20458;-62
2022/05/31 12:25:34;;;;;;;1.90;1.90;;;26.60;68.10;;;;;;5032218;28;20504;-62
2022/05/31 12:28:10;;;;;;;3.60;2.17;;;26.10;70.10;;;;;;5032150;28;20455;-62
2022/05/31 12:30:45;;;;;;;3.30;2.03;;;26.00;70.30;;;;;;5032081;28;20557;-62
2022/05/31 12:33:37;;;;;;;2.80;2.13;;;26.00;71.50;;;;;;5032053;28;20466;-62
2022/05/31 12:36:05;;;;;;;2.47;2.17;;;26.30;71.10;;;;;;5032058;28;20493;-61
2022/05/31 12:39:06;;;;;;;4.03;2.37;;;26.60;68.70;;;;;;5031827;28;20487;-61
2022/05/31 12:41:36;;;;;;;2.80;1.93;;;26.90;69.80;;;;;;5031851;28;20470;-62
2022/05/31 12:44:08;;;;;;;2.90;2.00;;;26.70;68.80;;;;;;5032042;28;20454;-62
2022/05/31 12:46:38;;;;;;;2.07;1.63;;;26.10;68.60;;;;;;5031981;28;20809;-62
2022/05/31 12:49:11;;;;;;;2.90;1.93;;;25.80;71.80;;;;;;5031888;28;20450;-62
2022/05/31 12:51:38;;;;;;;2.10;1.97;;;26.20;70.30;;;;;;5031933;28;20451;-62
2022/05/31 12:54:18;;;;;;;3.10;2.10;;;26.60;70.10;;;;;;5030817;28;20490;-61
2022/05/31 12:57:03;;;;;;;3.57;2.23;;;27.00;69.70;;;;;;5031894;28;20461;-61
2022/05/31 12:59:53;;;;;;;2.87;2.10;;;27.50;68.90;;;;;;5031831;28;20500;-61
2022/05/31 13:02:29;;;;;;;3.00;2.20;;;27.70;69.00;;;;;;5032117;28;20519;-61
2022/05/31 13:05:06;;;;;;;3.00;2.50;;;27.70;67.10;;;;;;5032000;28;20501;-61
2022/05/31 13:07:45;;;;;;;2.80;2.07;;;27.90;66.90;;;;;;5031773;28;20466;-61
2022/05/31 13:10:37;;;;;;;2.50;2.00;;;28.00;68.20;;;;;;5031916;28;20470;-61
2022/05/31 13:21:30;;;;;;;2.90;1.90;;;28.50;65.00;;;;;;5031529;28;20454;-61
2022/05/31 13:24:04;;;;;;;2.40;2.00;;;28.50;64.90;;;;;;5031599;28;20838;-61
2022/05/31 13:26:34;;;;;;;2.33;2.07;;;28.30;65.40;;;;;;5031451;28;20459;-61
2022/05/31 13:29:06;;;;;;;2.23;1.83;;;28.60;65.00;;;;;;5031625;28;20462;-61
2022/05/31 13:31:37;;;;;;;2.07;1.70;;;28.80;65.30;;;;;;5031568;28;20819;-61
2022/05/31 13:34:06;;;;;;;2.13;1.83;;;28.90;64.10;;;;;;5031575;28;20466;-61
2022/05/31 13:36:43;;;;;;;2.73;1.70;;;29.00;65.90;;;;;;5031402;28;20458;-61
2022/05/31 13:39:13;;;;;;;2.63;1.77;;;29.10;65.00;;;;;;5031396;28;20532;-62
2022/05/31 13:41:48;;;;;;;2.00;1.70;;;29.20;64.50;;;;;;5031173;28;20458;-62
2022/05/31 13:44:21;;;;;;;2.70;1.90;;;29.20;63.10;;;;;;5033500;28;20550;-61
2022/05/31 13:46:49;;;;;;;2.57;1.80;;;28.90;62.20;;;;;;5037791;28;20470;-61